createdAt,value
2023-10-04T00:01:30.509Z,100.00
2023-10-04T00:03:57.393Z,100.00
2023-10-04T00:06:24.139Z,100.00
2023-10-04T00:08:50.968Z,100.00
2023-10-04T00:11:17.796Z,100.00
2023-10-04T00:13:47.274Z,100.00
2023-10-04T00:16:14.606Z,100.00
2023-10-04T00:18:41.372Z,100.00
2023-10-04T00:21:11.699Z,100.00
2023-10-04T00:23:42.192Z,100.00
2023-10-04T00:26:09.580Z,100.00
2023-10-04T00:28:39.318Z,100.00
2023-10-04T00:31:06.940Z,100.00
2023-10-04T00:33:36.709Z,100.00
2023-10-04T00:36:07.191Z,100.00
2023-10-04T00:38:34.055Z,100.00
2023-10-04T00:41:00.951Z,100.00
2023-10-04T00:43:27.731Z,100.00
2023-10-04T00:45:54.763Z,100.00
2023-10-04T00:48:35.934Z,100.00
2023-10-04T00:51:02.892Z,100.00
2023-10-04T00:53:30.968Z,100.00
2023-10-04T00:55:58.531Z,100.00
2023-10-04T00:58:26.697Z,100.00
2023-10-04T01:00:53.807Z,100.00
2023-10-04T01:03:21.521Z,100.00
2023-10-04T01:05:49.111Z,100.00
2023-10-04T01:08:16.973Z,100.00
2023-10-04T01:10:45.876Z,100.00
2023-10-04T01:13:12.982Z,100.00
2023-10-04T01:15:40.809Z,100.00
2023-10-04T01:18:10.605Z,100.00
2023-10-04T01:20:39.768Z,100.00
2023-10-04T01:23:13.714Z,100.00
2023-10-04T01:25:42.564Z,100.00
2023-10-04T01:28:18.227Z,100.00
2023-10-04T01:30:53.201Z,100.00
2023-10-04T01:33:20.577Z,100.00
2023-10-04T01:35:55.111Z,100.00
2023-10-04T01:38:33.496Z,100.00
2023-10-04T01:41:00.575Z,100.00
2023-10-04T01:43:28.571Z,100.00
2023-10-04T01:45:58.764Z,100.00
2023-10-04T01:48:28.066Z,100.00
2023-10-04T01:50:55.175Z,100.00
2023-10-04T01:53:27.752Z,100.00
2023-10-04T01:55:57.838Z,100.00
2023-10-04T01:58:25.105Z,100.00
2023-10-04T02:00:54.244Z,100.00
2023-10-04T02:03:21.821Z,100.00
2023-10-04T02:05:58.315Z,100.00
2023-10-04T02:08:26.155Z,100.00
2023-10-04T02:10:53.689Z,100.00
2023-10-04T02:13:20.664Z,100.00
2023-10-04T02:15:52.107Z,100.00
2023-10-04T02:18:21.024Z,100.00
2023-10-04T02:20:50.118Z,100.00
2023-10-04T02:23:18.125Z,100.00
2023-10-04T02:25:46.842Z,100.00
2023-10-04T02:28:19.751Z,100.00
2023-10-04T02:30:49.641Z,100.00
2023-10-04T02:33:18.348Z,100.00
2023-10-04T02:35:48.507Z,100.00
2023-10-04T02:38:27.666Z,100.00
2023-10-04T02:40:55.444Z,100.00
2023-10-04T02:43:26.512Z,100.00
2023-10-04T02:45:54.593Z,100.00
2023-10-04T02:48:21.753Z,100.00
2023-10-04T02:50:48.923Z,100.00
2023-10-04T02:53:26.185Z,100.00
2023-10-04T02:55:58.423Z,100.00
2023-10-04T02:58:31.676Z,100.00
2023-10-04T03:00:58.934Z,100.00
2023-10-04T03:03:26.088Z,100.00
2023-10-04T03:05:59.080Z,100.00
2023-10-04T03:08:28.301Z,100.00
2023-10-04T03:10:56.773Z,100.00
2023-10-04T03:13:27.187Z,100.00
2023-10-04T03:15:59.053Z,100.00
2023-10-04T03:18:29.351Z,100.00
2023-10-04T03:21:02.371Z,100.00
2023-10-04T03:23:37.101Z,100.00
2023-10-04T03:26:14.065Z,100.00
2023-10-04T03:28:42.563Z,100.00
2023-10-04T03:31:15.742Z,100.00
2023-10-04T03:33:46.766Z,100.00
2023-10-04T03:36:21.186Z,100.00
2023-10-04T03:38:55.150Z,100.00
2023-10-04T03:41:22.718Z,100.00
2023-10-04T03:43:52.176Z,100.00
2023-10-04T03:46:21.942Z,100.00
2023-10-04T03:48:54.002Z,100.00
2023-10-04T03:51:23.038Z,100.00
2023-10-04T03:53:52.505Z,100.00
2023-10-04T03:56:22.035Z,100.00
2023-10-04T03:58:50.497Z,100.00
2023-10-04T04:01:18.484Z,100.00
2023-10-04T04:03:50.792Z,100.00
2023-10-04T04:06:18.485Z,100.00
2023-10-04T04:08:47.986Z,100.00
2023-10-04T04:11:15.597Z,100.00
2023-10-04T04:13:43.236Z,100.00
2023-10-04T04:16:12.815Z,100.00
2023-10-04T04:18:41.741Z,100.00
2023-10-04T04:21:09.824Z,100.00
2023-10-04T04:23:38.000Z,100.00
2023-10-04T04:26:09.479Z,100.00
2023-10-04T04:28:38.890Z,100.00
2023-10-04T04:31:16.600Z,100.00
2023-10-04T04:33:45.950Z,100.00
2023-10-04T04:36:29.097Z,100.00
2023-10-04T04:39:07.343Z,100.00
2023-10-04T04:41:36.816Z,100.00
2023-10-04T04:44:08.826Z,100.00
2023-10-04T04:46:37.072Z,100.00
2023-10-04T04:49:05.427Z,100.00
2023-10-04T04:51:33.085Z,100.00
2023-10-04T04:54:00.252Z,100.00
2023-10-04T04:56:33.039Z,100.00
2023-10-04T04:59:10.511Z,100.00
2023-10-04T05:01:41.268Z,100.00
2023-10-04T05:04:09.364Z,100.00
2023-10-04T05:06:38.178Z,100.00
2023-10-04T05:09:06.701Z,100.00
2023-10-04T05:11:33.986Z,100.00
2023-10-04T05:14:01.566Z,100.00
2023-10-04T05:16:28.375Z,100.00
2023-10-04T05:18:55.675Z,100.00
2023-10-04T05:21:22.960Z,100.00
2023-10-04T05:23:49.902Z,100.00
2023-10-04T05:26:16.703Z,100.00
2023-10-04T05:28:43.452Z,100.00
2023-10-04T05:31:10.476Z,100.00
2023-10-04T05:33:37.758Z,100.00
2023-10-04T05:36:05.162Z,100.00
2023-10-04T05:38:33.488Z,100.00
2023-10-04T05:41:02.181Z,100.00
2023-10-04T05:43:30.807Z,100.00
2023-10-04T05:45:58.551Z,100.00
2023-10-04T05:48:27.630Z,100.00
2023-10-04T05:50:59.691Z,100.00
2023-10-04T05:53:27.687Z,100.00
2023-10-04T05:55:55.416Z,100.00
2023-10-04T05:58:22.913Z,100.00
2023-10-04T06:00:57.911Z,100.00
2023-10-04T06:03:25.105Z,100.00
2023-10-04T06:05:54.984Z,100.00
2023-10-04T06:08:23.074Z,100.00
2023-10-04T06:10:52.713Z,100.00
2023-10-04T06:13:24.014Z,100.00
2023-10-04T06:15:54.894Z,100.00
2023-10-04T06:18:27.671Z,100.00
2023-10-04T06:20:54.827Z,100.00
2023-10-04T06:23:22.674Z,100.00
2023-10-04T06:25:51.218Z,100.00
2023-10-04T06:28:18.768Z,100.00
2023-10-04T06:30:49.903Z,100.00
2023-10-04T06:33:17.394Z,100.00
2023-10-04T06:35:44.967Z,100.00
2023-10-04T06:38:13.735Z,100.00
2023-10-04T06:40:41.152Z,98.18
2023-10-04T06:43:12.113Z,95.66
2023-10-04T06:45:41.239Z,91.05
2023-10-04T06:48:09.293Z,88.39
2023-10-04T06:50:40.293Z,87.15
2023-10-04T06:53:10.330Z,83.33
2023-10-04T06:55:38.754Z,79.84
2023-10-04T06:58:07.996Z,77.73
2023-10-04T07:00:38.517Z,76.89
2023-10-04T07:03:06.674Z,71.98
2023-10-04T07:05:38.589Z,72.47
2023-10-04T07:08:07.951Z,70.11
2023-10-04T07:10:36.251Z,70.50
2023-10-04T07:13:04.465Z,65.25
2023-10-04T07:15:36.643Z,67.06
2023-10-04T07:18:08.450Z,66.10
2023-10-04T07:20:36.126Z,64.26
2023-10-04T07:23:09.305Z,64.54
2023-10-04T07:25:39.357Z,63.76
2023-10-04T07:28:10.714Z,62.43
2023-10-04T07:30:40.812Z,61.40
2023-10-04T07:33:11.442Z,62.08
2023-10-04T07:35:38.683Z,60.97
2023-10-04T07:38:06.337Z,59.96
2023-10-04T07:40:33.759Z,61.71
2023-10-04T07:43:02.361Z,61.72
2023-10-04T07:45:30.632Z,62.69
2023-10-04T07:47:58.686Z,59.48
2023-10-04T07:50:27.356Z,59.93
2023-10-04T07:53:00.981Z,56.72
2023-10-04T07:55:28.749Z,55.96
2023-10-04T07:58:05.682Z,55.16
2023-10-04T08:00:37.855Z,53.49
2023-10-04T08:03:05.780Z,52.05
2023-10-04T08:05:33.983Z,53.73
2023-10-04T08:08:07.154Z,53.06
2023-10-04T08:10:37.016Z,54.84
2023-10-04T08:13:05.501Z,55.78
2023-10-04T08:15:36.673Z,55.91
2023-10-04T08:18:05.326Z,57.50
2023-10-04T08:20:34.993Z,55.88
2023-10-04T08:23:03.951Z,57.14
2023-10-04T08:25:33.200Z,56.31
2023-10-04T08:28:01.191Z,55.71
2023-10-04T08:30:29.492Z,55.04
2023-10-04T08:32:56.385Z,54.83
2023-10-04T08:35:23.597Z,53.76
2023-10-04T08:37:54.287Z,53.66
2023-10-04T08:40:22.558Z,52.95
2023-10-04T08:42:51.770Z,52.75
2023-10-04T08:45:22.858Z,52.27
2023-10-04T08:47:51.881Z,53.32
2023-10-04T08:50:39.730Z,52.75
2023-10-04T08:53:12.953Z,53.91
2023-10-04T08:55:42.415Z,54.35
2023-10-04T08:58:10.808Z,54.31
2023-10-04T09:00:44.477Z,52.07
2023-10-04T09:03:14.040Z,51.67
2023-10-04T09:05:47.391Z,51.33
2023-10-04T09:08:17.945Z,49.77
2023-10-04T09:10:46.389Z,49.58
2023-10-04T09:13:13.934Z,49.46
2023-10-04T09:15:41.849Z,48.67
2023-10-04T09:18:09.449Z,49.18
2023-10-04T09:20:38.038Z,50.56
2023-10-04T09:23:17.063Z,49.30
2023-10-04T09:25:46.635Z,49.71
2023-10-04T09:28:13.557Z,48.50
2023-10-04T09:30:40.447Z,47.33
2023-10-04T09:33:30.057Z,47.12
2023-10-04T09:35:57.224Z,47.13
2023-10-04T09:38:26.322Z,46.59
2023-10-04T09:40:58.266Z,48.48
2023-10-04T09:43:36.495Z,48.12
2023-10-04T09:46:08.818Z,48.20
2023-10-04T09:48:43.193Z,47.92
2023-10-04T09:51:11.034Z,47.62
2023-10-04T09:53:41.951Z,47.38
2023-10-04T09:56:13.706Z,47.92
2023-10-04T09:59:00.783Z,46.14
2023-10-04T10:01:30.539Z,46.27
2023-10-04T10:04:04.247Z,45.41
2023-10-04T10:06:36.323Z,45.69
2023-10-04T10:09:06.336Z,46.18
2023-10-04T10:11:34.089Z,45.44
2023-10-04T10:14:05.472Z,45.03
2023-10-04T10:16:35.382Z,45.25
2023-10-04T10:19:04.948Z,44.93
2023-10-04T10:22:07.414Z,44.76
2023-10-04T10:24:34.904Z,45.24
2023-10-04T10:27:09.044Z,44.55
2023-10-04T10:29:37.669Z,46.13
2023-10-04T10:32:10.461Z,45.67
2023-10-04T10:34:37.413Z,46.19
2023-10-04T10:37:23.685Z,45.65
2023-10-04T10:39:52.583Z,46.00
2023-10-04T10:42:20.390Z,46.82
2023-10-04T10:44:49.193Z,46.59
2023-10-04T10:47:26.900Z,47.11
2023-10-04T10:49:57.585Z,47.19
2023-10-04T10:52:35.902Z,46.78
2023-10-04T10:55:06.900Z,47.93
2023-10-04T10:57:38.023Z,47.93
2023-10-04T11:00:20.431Z,48.48
2023-10-04T11:02:55.012Z,48.63
2023-10-04T11:05:23.314Z,48.01
2023-10-04T11:07:51.908Z,47.74
2023-10-04T11:10:18.926Z,47.91
2023-10-04T11:12:47.987Z,48.60
2023-10-04T11:15:19.314Z,48.99
2023-10-04T11:17:47.445Z,48.65
2023-10-04T11:20:19.244Z,48.31
2023-10-04T11:22:46.925Z,49.81
2023-10-04T11:25:14.884Z,49.33
2023-10-04T11:27:51.750Z,49.06
2023-10-04T11:30:20.237Z,49.53
2023-10-04T11:32:47.704Z,50.69
2023-10-04T11:35:19.912Z,50.54
2023-10-04T11:37:49.935Z,49.97
2023-10-04T11:40:26.332Z,50.13
2023-10-04T11:43:04.665Z,49.99
2023-10-04T11:45:33.186Z,49.97
2023-10-04T11:48:09.355Z,50.99
2023-10-04T11:50:46.950Z,49.65
2023-10-04T11:53:14.565Z,50.26
2023-10-04T11:55:41.800Z,50.44
2023-10-04T11:58:11.658Z,50.54
2023-10-04T12:00:38.938Z,51.16
2023-10-04T12:03:07.522Z,50.89
2023-10-04T12:05:34.670Z,50.71
2023-10-04T12:08:02.455Z,51.29
2023-10-04T12:10:29.368Z,52.61
2023-10-04T12:12:59.181Z,53.76
2023-10-04T12:15:26.770Z,53.24
2023-10-04T12:17:53.821Z,53.92
2023-10-04T12:20:22.159Z,53.04
2023-10-04T12:22:53.183Z,54.10
2023-10-04T12:25:23.136Z,53.04
2023-10-04T12:27:55.416Z,53.42
2023-10-04T12:30:25.122Z,53.83
2023-10-04T12:32:52.832Z,53.45
2023-10-04T12:35:19.788Z,53.62
2023-10-04T12:37:46.745Z,52.63
2023-10-04T12:40:33.885Z,53.83
2023-10-04T12:43:01.015Z,54.20
2023-10-04T12:45:30.592Z,53.67
2023-10-04T12:47:57.922Z,54.07
2023-10-04T12:50:26.214Z,54.04
2023-10-04T12:52:53.067Z,53.61
2023-10-04T12:55:19.773Z,53.65
2023-10-04T12:57:46.976Z,53.65
2023-10-04T13:00:17.407Z,53.69
2023-10-04T13:02:45.752Z,53.85
2023-10-04T13:05:15.614Z,54.29
2023-10-04T13:07:44.178Z,55.04
2023-10-04T13:10:12.099Z,54.99
2023-10-04T13:12:39.807Z,54.64
2023-10-04T13:15:08.080Z,55.52
2023-10-04T13:17:38.822Z,56.44
2023-10-04T13:20:10.590Z,55.81
2023-10-04T13:22:37.490Z,55.08
2023-10-04T13:25:08.105Z,55.57
2023-10-04T13:27:36.196Z,56.11
2023-10-04T13:30:03.320Z,56.34
2023-10-04T13:32:31.448Z,56.18
2023-10-04T13:34:58.762Z,57.06
2023-10-04T13:37:25.555Z,56.14
2023-10-04T13:39:52.909Z,56.32
2023-10-04T13:42:28.672Z,55.71
2023-10-04T13:44:58.503Z,57.21
2023-10-04T13:47:25.474Z,57.63
2023-10-04T13:49:52.302Z,58.89
2023-10-04T13:52:20.397Z,59.71
2023-10-04T13:54:54.797Z,59.28
2023-10-04T13:57:24.051Z,57.85
2023-10-04T13:59:50.893Z,58.46
2023-10-04T14:02:20.157Z,58.68
2023-10-04T14:04:47.487Z,59.21
2023-10-04T14:07:15.178Z,59.20
2023-10-04T14:09:42.143Z,60.85
2023-10-04T14:12:08.763Z,62.55
2023-10-04T14:14:46.697Z,62.36
2023-10-04T14:17:14.856Z,62.76
2023-10-04T14:19:43.696Z,63.98
2023-10-04T14:22:11.435Z,68.49
2023-10-04T14:24:38.273Z,69.89
2023-10-04T14:27:05.037Z,74.29
2023-10-04T14:29:32.028Z,72.37
2023-10-04T14:31:59.163Z,74.05
2023-10-04T14:34:26.212Z,68.56
2023-10-04T14:36:52.942Z,70.36
2023-10-04T14:39:22.871Z,68.76
2023-10-04T14:41:50.008Z,68.92
2023-10-04T14:44:19.957Z,67.17
2023-10-04T14:46:49.863Z,66.29
2023-10-04T14:49:19.934Z,63.63
2023-10-04T14:51:47.396Z,61.27
2023-10-04T14:54:15.252Z,61.80
2023-10-04T14:56:43.087Z,62.29
2023-10-04T14:59:10.051Z,63.74
2023-10-04T15:01:36.648Z,63.03
2023-10-04T15:04:04.978Z,63.95
2023-10-04T15:06:32.093Z,64.27
2023-10-04T15:08:58.757Z,64.18
2023-10-04T15:11:30.676Z,65.83
2023-10-04T15:13:59.337Z,66.44
2023-10-04T15:16:26.510Z,68.42
2023-10-04T15:18:54.533Z,69.54
2023-10-04T15:21:21.500Z,69.60
2023-10-04T15:23:48.337Z,70.21
2023-10-04T15:26:14.949Z,73.79
2023-10-04T15:28:45.435Z,73.26
2023-10-04T15:31:14.608Z,71.98
2023-10-04T15:33:42.533Z,71.65
2023-10-04T15:36:10.327Z,69.78
2023-10-04T15:38:37.992Z,66.91
2023-10-04T15:41:04.839Z,67.73
2023-10-04T15:43:31.648Z,67.10
2023-10-04T15:45:59.562Z,66.66
2023-10-04T15:48:26.613Z,67.18
2023-10-04T15:50:53.337Z,69.15
2023-10-04T15:53:20.078Z,69.57
2023-10-04T15:55:46.886Z,68.99
2023-10-04T15:58:13.672Z,68.21
2023-10-04T16:00:42.335Z,70.89
2023-10-04T16:03:10.830Z,71.96
2023-10-04T16:05:37.740Z,72.92
2023-10-04T16:08:05.576Z,73.89
2023-10-04T16:10:32.427Z,75.12
2023-10-04T16:13:00.481Z,76.07
2023-10-04T16:15:27.666Z,76.13
2023-10-04T16:17:55.676Z,75.87
2023-10-04T16:20:23.051Z,76.70
2023-10-04T16:22:55.720Z,77.60
2023-10-04T16:25:22.870Z,77.89
2023-10-04T16:27:51.471Z,78.74
2023-10-04T16:30:19.841Z,78.32
2023-10-04T16:32:48.070Z,79.15
2023-10-04T16:35:16.873Z,79.70
2023-10-04T16:37:46.586Z,80.83
2023-10-04T16:40:16.612Z,80.13
2023-10-04T16:42:47.259Z,80.54
2023-10-04T16:45:14.284Z,81.55
2023-10-04T16:47:42.803Z,83.47
2023-10-04T16:50:09.870Z,83.64
2023-10-04T16:52:37.015Z,85.55
2023-10-04T16:55:08.785Z,84.65
2023-10-04T16:57:35.792Z,85.41
2023-10-04T17:00:02.898Z,87.91
2023-10-04T17:02:29.695Z,89.28
2023-10-04T17:04:56.459Z,90.18
2023-10-04T17:07:23.836Z,90.26
2023-10-04T17:09:50.867Z,89.50
2023-10-04T17:12:17.748Z,88.67
2023-10-04T17:14:44.467Z,88.69
2023-10-04T17:17:11.346Z,88.77
2023-10-04T17:19:38.648Z,88.86
2023-10-04T17:22:05.566Z,88.83
2023-10-04T17:24:32.403Z,89.69
2023-10-04T17:26:59.192Z,88.94
2023-10-04T17:29:25.958Z,88.59
2023-10-04T17:31:53.013Z,88.97
2023-10-04T17:34:19.795Z,90.03
2023-10-04T17:36:46.608Z,89.99
2023-10-04T17:39:15.267Z,89.56
2023-10-04T17:41:42.448Z,91.24
2023-10-04T17:44:09.430Z,91.05
2023-10-04T17:46:36.693Z,91.45
2023-10-04T17:49:03.628Z,90.53
2023-10-04T17:51:30.750Z,92.81
2023-10-04T17:54:00.189Z,91.82
2023-10-04T17:56:27.055Z,91.40
2023-10-04T17:58:53.791Z,91.59
2023-10-04T18:01:22.209Z,91.54
2023-10-04T18:03:49.231Z,92.08
2023-10-04T18:06:19.598Z,92.66
2023-10-04T18:08:46.475Z,92.33
2023-10-04T18:11:13.358Z,91.85
2023-10-04T18:13:41.945Z,91.41
2023-10-04T18:16:09.107Z,90.90
2023-10-04T18:18:36.172Z,91.48
2023-10-04T18:21:02.970Z,92.75
2023-10-04T18:23:29.791Z,92.74
2023-10-04T18:25:58.708Z,93.36
2023-10-04T18:28:25.446Z,92.91
2023-10-04T18:30:52.367Z,93.20
2023-10-04T18:33:19.247Z,93.29
2023-10-04T18:35:46.019Z,93.67
2023-10-04T18:38:12.804Z,94.28
2023-10-04T18:40:39.580Z,94.42
2023-10-04T18:43:07.674Z,94.80
2023-10-04T18:45:36.040Z,95.13
2023-10-04T18:48:03.253Z,95.75
2023-10-04T18:50:30.019Z,95.99
2023-10-04T18:52:56.803Z,96.10
2023-10-04T18:55:23.661Z,96.88
2023-10-04T18:57:50.490Z,95.95
2023-10-04T19:00:17.614Z,95.77
2023-10-04T19:02:45.048Z,94.80
2023-10-04T19:05:13.859Z,94.29
2023-10-04T19:07:41.165Z,93.94
2023-10-04T19:10:11.114Z,95.50
2023-10-04T19:12:38.011Z,95.44
2023-10-04T19:15:07.404Z,95.67
2023-10-04T19:17:34.230Z,95.89
2023-10-04T19:20:01.036Z,95.99
2023-10-04T19:22:33.065Z,96.13
2023-10-04T19:25:00.833Z,96.64
2023-10-04T19:27:27.857Z,96.94
2023-10-04T19:29:54.725Z,96.65
2023-10-04T19:32:22.297Z,96.34
2023-10-04T19:34:49.153Z,95.91
2023-10-04T19:37:15.985Z,96.57
2023-10-04T19:39:43.627Z,95.54
2023-10-04T19:42:11.018Z,97.58
2023-10-04T19:44:39.499Z,98.14
2023-10-04T19:47:06.476Z,97.63
2023-10-04T19:49:37.463Z,97.59
2023-10-04T19:52:07.263Z,97.37
2023-10-04T19:54:34.139Z,98.30
2023-10-04T19:57:00.861Z,97.45
2023-10-04T19:59:28.922Z,96.84
2023-10-04T20:01:55.690Z,95.67
2023-10-04T20:04:24.243Z,94.68
2023-10-04T20:06:51.765Z,97.72
2023-10-04T20:09:26.598Z,99.17
2023-10-04T20:11:53.911Z,99.53
2023-10-04T20:14:20.735Z,97.80
2023-10-04T20:16:50.490Z,98.15
2023-10-04T20:19:18.725Z,96.69
2023-10-04T20:21:46.338Z,97.04
2023-10-04T20:24:13.467Z,97.98
2023-10-04T20:26:40.244Z,98.95
2023-10-04T20:29:07.064Z,99.58
2023-10-04T20:31:34.513Z,99.27
2023-10-04T20:34:02.422Z,98.38
2023-10-04T20:36:29.323Z,100.00
2023-10-04T20:38:57.418Z,100.00
2023-10-04T20:41:24.422Z,99.52
2023-10-04T20:43:52.681Z,98.95
2023-10-04T20:46:19.486Z,98.67
2023-10-04T20:48:47.403Z,98.01
2023-10-04T20:51:14.273Z,97.46
2023-10-04T20:53:41.068Z,97.50
2023-10-04T20:56:08.024Z,98.58
2023-10-04T20:58:34.794Z,100.00
2023-10-04T21:01:03.111Z,100.00
2023-10-04T21:03:31.666Z,100.00
2023-10-04T21:05:58.630Z,100.00
2023-10-04T21:08:26.021Z,99.43
2023-10-04T21:10:52.740Z,98.86
2023-10-04T21:13:19.923Z,98.71
2023-10-04T21:15:46.738Z,98.14
2023-10-04T21:18:14.110Z,97.87
2023-10-04T21:20:40.864Z,97.51
2023-10-04T21:23:07.705Z,99.11
2023-10-04T21:25:34.628Z,100.00
2023-10-04T21:28:01.441Z,100.00
2023-10-04T21:30:40.077Z,100.00
2023-10-04T21:33:17.706Z,100.00
2023-10-04T21:35:53.622Z,100.00
2023-10-04T21:38:27.530Z,100.00
2023-10-04T21:40:55.639Z,100.00
2023-10-04T21:43:22.380Z,100.00
2023-10-04T21:45:58.464Z,100.00
2023-10-04T21:48:30.470Z,100.00
2023-10-04T21:50:59.359Z,100.00
2023-10-04T21:53:26.398Z,100.00
2023-10-04T21:55:53.346Z,100.00
2023-10-04T21:58:20.597Z,100.00
2023-10-04T22:00:54.725Z,100.00
2023-10-04T22:03:25.337Z,100.00
2023-10-04T22:05:56.946Z,100.00
2023-10-04T22:08:25.382Z,100.00
2023-10-04T22:10:54.749Z,100.00
2023-10-04T22:13:21.478Z,100.00
2023-10-04T22:15:48.805Z,100.00
2023-10-04T22:18:15.628Z,100.00
2023-10-04T22:20:42.793Z,100.00
2023-10-04T22:23:10.647Z,100.00
2023-10-04T22:25:37.516Z,100.00
2023-10-04T22:28:07.430Z,100.00
2023-10-04T22:30:34.973Z,100.00
2023-10-04T22:33:02.015Z,100.00
2023-10-04T22:35:31.018Z,100.00
2023-10-04T22:37:58.251Z,100.00
2023-10-04T22:40:26.209Z,100.00
2023-10-04T22:42:58.997Z,100.00
2023-10-04T22:45:28.016Z,100.00
2023-10-04T22:47:56.575Z,100.00
2023-10-04T22:50:23.910Z,100.00
2023-10-04T22:52:51.713Z,100.00
2023-10-04T22:55:18.518Z,100.00
2023-10-04T22:57:52.518Z,100.00
2023-10-04T23:00:19.876Z,100.00
2023-10-04T23:02:47.272Z,100.00
2023-10-04T23:05:15.051Z,100.00
2023-10-04T23:07:42.959Z,100.00
2023-10-04T23:10:22.754Z,100.00
2023-10-04T23:12:51.577Z,100.00
2023-10-04T23:15:27.495Z,100.00
2023-10-04T23:17:58.071Z,100.00
2023-10-04T23:20:34.935Z,100.00
2023-10-04T23:23:06.611Z,100.00
2023-10-04T23:25:37.193Z,100.00
2023-10-04T23:28:07.277Z,100.00
2023-10-04T23:30:43.039Z,100.00
2023-10-04T23:33:10.853Z,100.00
2023-10-04T23:35:40.903Z,100.00
2023-10-04T23:38:22.324Z,100.00
2023-10-04T23:40:49.816Z,100.00
2023-10-04T23:43:20.075Z,100.00
2023-10-04T23:45:48.085Z,100.00
2023-10-04T23:48:34.779Z,100.00
2023-10-04T23:51:09.445Z,100.00
2023-10-04T23:53:42.715Z,100.00
2023-10-04T23:56:09.629Z,100.00
2023-10-04T23:58:44.941Z,100.00
